Time,TemperatureF,DewpointF,PressureIn,WindDirection,WindDirectionDegrees,WindSpeedMPH,WindSpeedGustMPH,Humidity,HourlyPrecipIn,Conditions,Clouds,dailyrainin,SoftwareType,DateUTC
2013-02-13 00:00:00,46.4,38.6,30.45,SW,225,3.1,3.6,74,0.00,,---,0.00,VWS V13.01,2013-02-13 08:00:00,
2013-02-13 00:06:00,46.2,38.8,30.45,SW,229,3.1,3.1,75,0.00,,---,0.00,VWS V13.01,2013-02-13 08:06:00,
2013-02-13 00:11:00,46.2,38.8,30.45,SW,225,3.6,4.0,75,0.00,,---,0.00,VWS V13.01,2013-02-13 08:11:00,
2013-02-13 00:17:00,46.2,38.8,30.45,WSW,253,4.9,4.9,75,0.00,,---,0.00,VWS V13.01,2013-02-13 08:17:00,
2013-02-13 00:22:00,46.2,38.8,30.45,SW,225,3.1,4.0,75,0.00,,---,0.00,VWS V13.01,2013-02-13 08:22:00,
2013-02-13 00:28:00,46.2,38.8,30.45,SW,233,5.4,6.3,75,0.00,,---,0.00,VWS V13.01,2013-02-13 08:28:00,
2013-02-13 00:33:00,46.2,38.8,30.45,SW,233,2.7,3.6,75,0.00,,---,0.00,VWS V13.01,2013-02-13 08:33:00,
2013-02-13 00:38:00,46.2,38.8,30.45,WSW,237,3.6,4.0,75,0.00,,---,0.00,VWS V13.01,2013-02-13 08:38:00,
2013-02-13 00:43:00,46.2,38.8,30.45,SW,229,4.0,4.0,75,0.00,,---,0.00,VWS V13.01,2013-02-13 08:43:00,
2013-02-13 00:49:00,46.2,38.8,30.45,SW,218,3.6,3.6,75,0.00,,---,0.00,VWS V13.01,2013-02-13 08:49:00,
2013-02-13 00:55:00,46.2,39.1,30.45,SW,227,2.2,3.1,76,0.00,,---,0.00,VWS V13.01,2013-02-13 08:55:00,
2013-02-13 01:00:00,46.2,39.1,30.45,SW,226,0.0,2.7,76,0.00,,---,0.00,VWS V13.01,2013-02-13 09:00:00,
2013-02-13 01:06:00,46.2,39.1,30.45,SW,233,4.9,4.9,76,0.00,,---,0.00,VWS V13.01,2013-02-13 09:06:00,
2013-02-13 01:11:00,46.2,39.1,30.45,South,189,6.3,6.3,76,0.00,,---,0.00,VWS V13.01,2013-02-13 09:11:00,
2013-02-13 01:17:00,46.2,39.1,30.45,WSW,241,0.0,3.1,76,0.00,,---,0.00,VWS V13.01,2013-02-13 09:17:00,
2013-02-13 01:23:00,46.2,39.4,30.45,WSW,247,2.2,2.2,77,0.00,,---,0.00,VWS V13.01,2013-02-13 09:23:00,
2013-02-13 01:28:00,46.2,39.4,30.45,SSW,211,0.0,0.0,77,0.00,,---,0.00,VWS V13.01,2013-02-13 09:28:00,
2013-02-13 01:34:00,46.2,39.4,30.45,SW,224,0.0,0.0,77,0.00,,---,0.00,VWS V13.01,2013-02-13 09:34:00,
2013-02-13 01:39:00,46.2,39.4,30.45,SW,214,0.0,0.0,77,0.00,,---,0.00,VWS V13.01,2013-02-13 09:39:00,
2013-02-13 01:45:00,46.2,39.4,30.45,SW,231,0.0,0.0,77,0.00,,---,0.00,VWS V13.01,2013-02-13 09:45:00,
2013-02-13 01:51:00,46.2,39.4,30.45,SW,226,0.0,0.0,77,0.00,,---,0.00,VWS V13.01,2013-02-13 09:51:00,
2013-02-13 01:56:00,46.2,39.4,30.45,SW,226,0.0,2.7,77,0.00,,---,0.00,VWS V13.01,2013-02-13 09:56:00,
2013-02-13 02:01:00,46.2,39.4,30.45,South,182,2.7,2.7,77,0.00,,---,0.00,VWS V13.01,2013-02-13 10:01:00,
2013-02-13 02:06:00,46.0,39.6,30.45,SW,230,3.1,4.0,78,0.00,,---,0.00,VWS V13.01,2013-02-13 10:06:00,
2013-02-13 02:12:00,46.0,39.6,30.45,SW,230,3.1,3.1,78,0.00,,---,0.00,VWS V13.01,2013-02-13 10:12:00,
2013-02-13 02:17:00,46.0,39.6,30.45,SW,231,2.7,4.0,78,0.00,,---,0.00,VWS V13.01,2013-02-13 10:17:00,
2013-02-13 02:23:00,46.0,39.6,30.45,SW,228,0.0,2.7,78,0.00,,---,0.00,VWS V13.01,2013-02-13 10:23:00,
2013-02-13 02:28:00,46.0,39.2,30.45,SW,222,2.7,2.7,77,0.00,,---,0.00,VWS V13.01,2013-02-13 10:28:00,
2013-02-13 02:34:00,46.0,39.2,30.45,SW,222,2.2,4.0,77,0.00,,---,0.00,VWS V13.01,2013-02-13 10:34:00,
2013-02-13 02:39:00,46.0,39.2,30.45,SW,234,0.0,0.0,77,0.00,,---,0.00,VWS V13.01,2013-02-13 10:39:00,
2013-02-13 02:45:00,46.0,39.2,30.45,SW,224,0.0,2.7,77,0.00,,---,0.00,VWS V13.01,2013-02-13 10:45:00,
2013-02-13 02:50:00,46.0,39.2,30.45,SW,222,0.0,0.0,77,0.00,,---,0.00,VWS V13.01,2013-02-13 10:50:00,
2013-02-13 02:55:00,46.0,39.2,30.45,SW,221,0.0,0.0,77,0.00,,---,0.00,VWS V13.01,2013-02-13 10:55:00,
2013-02-13 03:01:00,45.9,39.1,30.45,SW,227,3.1,3.6,77,0.00,,---,0.00,VWS V13.01,2013-02-13 11:01:00,
2013-02-13 03:06:00,45.9,39.1,30.45,SW,230,2.7,4.0,77,0.00,,---,0.00,VWS V13.01,2013-02-13 11:06:00,
2013-02-13 03:11:00,45.9,39.1,30.45,SW,222,2.7,3.1,77,0.00,,---,0.00,VWS V13.01,2013-02-13 11:11:00,
2013-02-13 03:16:00,45.9,39.1,30.45,South,171,3.6,5.4,77,0.00,,---,0.00,VWS V13.01,2013-02-13 11:16:00,
2013-02-13 03:22:00,45.9,39.1,30.45,South,186,2.7,4.0,77,0.00,,---,0.00,VWS V13.01,2013-02-13 11:22:00,
2013-02-13 03:27:00,45.9,39.1,30.45,SW,223,2.2,3.6,77,0.00,,---,0.00,VWS V13.01,2013-02-13 11:27:00,
2013-02-13 03:33:00,45.9,39.1,30.45,SSW,210,3.1,4.9,77,0.00,,---,0.00,VWS V13.01,2013-02-13 11:33:00,
2013-02-13 03:38:00,45.9,39.1,30.45,SSW,208,2.2,3.6,77,0.00,,---,0.00,VWS V13.01,2013-02-13 11:38:00,
2013-02-13 03:44:00,45.9,39.1,30.45,SW,233,3.1,4.9,77,0.00,,---,0.00,VWS V13.01,2013-02-13 11:44:00,
2013-02-13 03:50:00,45.9,39.1,30.45,SW,224,2.2,4.0,77,0.00,,---,0.00,VWS V13.01,2013-02-13 11:50:00,
2013-02-13 03:55:00,45.9,39.1,30.45,SW,225,2.7,3.6,77,0.00,,---,0.00,VWS V13.01,2013-02-13 11:55:00,
2013-02-13 04:01:00,45.9,39.1,30.45,SW,230,4.0,4.0,77,0.00,,---,0.00,VWS V13.01,2013-02-13 12:01:00,
2013-02-13 04:06:00,45.7,38.9,30.45,SW,217,4.0,4.0,77,0.00,,---,0.00,VWS V13.01,2013-02-13 12:06:00,
2013-02-13 04:12:00,45.5,38.7,30.42,SW,225,2.7,5.4,77,0.00,,---,0.00,VWS V13.01,2013-02-13 12:12:00,
2013-02-13 04:17:00,45.3,38.5,30.42,SW,233,3.1,3.6,77,0.00,,---,0.00,VWS V13.01,2013-02-13 12:17:00,
2013-02-13 04:23:00,45.1,38.7,30.42,SW,235,4.9,4.9,78,0.00,,---,0.00,VWS V13.01,2013-02-13 12:23:00,
2013-02-13 04:28:00,45.3,38.9,30.42,SW,231,4.0,4.0,78,0.00,,---,0.00,VWS V13.01,2013-02-13 12:28:00,
2013-02-13 04:33:00,45.1,38.7,30.42,SSW,212,2.7,3.6,78,0.00,,---,0.00,VWS V13.01,2013-02-13 12:33:00,
2013-02-13 04:39:00,44.8,38.3,30.42,SW,230,3.6,3.6,78,0.00,,---,0.00,VWS V13.01,2013-02-13 12:39:00,
2013-02-13 04:44:00,44.8,38.7,30.42,SW,229,3.1,4.0,79,0.00,,---,0.00,VWS V13.01,2013-02-13 12:44:00,
2013-02-13 04:49:00,45.0,39.2,30.42,SW,229,4.0,4.0,80,0.00,,---,0.00,VWS V13.01,2013-02-13 12:49:00,
2013-02-13 04:55:00,45.1,39.3,30.42,SW,229,3.6,4.0,80,0.00,,---,0.00,VWS V13.01,2013-02-13 12:55:00,
2013-02-13 05:01:00,45.1,39.7,30.42,SW,229,2.7,4.0,81,0.00,,---,0.00,VWS V13.01,2013-02-13 13:01:00,
2013-02-13 05:06:00,45.3,40.2,30.42,WSW,244,4.0,4.0,82,0.00,,---,0.00,VWS V13.01,2013-02-13 13:06:00,
2013-02-13 05:12:00,45.3,40.2,30.42,SW,236,3.1,5.4,82,0.00,,---,0.00,VWS V13.01,2013-02-13 13:12:00,
2013-02-13 05:18:00,45.3,40.2,30.42,SW,217,2.7,3.1,82,0.00,,---,0.00,VWS V13.01,2013-02-13 13:18:00,
2013-02-13 05:23:00,45.3,40.2,30.42,SW,224,2.2,4.0,82,0.00,,---,0.00,VWS V13.01,2013-02-13 13:23:00,
2013-02-13 05:29:00,45.5,40.3,30.45,SW,218,3.6,4.0,82,0.00,,---,0.00,VWS V13.01,2013-02-13 13:29:00,
2013-02-13 05:35:00,45.5,40.7,30.45,SW,222,3.1,5.4,83,0.00,,---,0.00,VWS V13.01,2013-02-13 13:35:00,
2013-02-13 05:40:00,45.5,40.7,30.45,SW,230,3.6,4.0,83,0.00,,---,0.00,VWS V13.01,2013-02-13 13:40:00,
2013-02-13 05:46:00,45.7,40.8,30.45,South,182,3.6,3.6,83,0.00,,---,0.00,VWS V13.01,2013-02-13 13:46:00,
2013-02-13 05:51:00,45.7,40.8,30.45,South,191,5.4,5.4,83,0.00,,---,0.00,VWS V13.01,2013-02-13 13:51:00,
2013-02-13 05:57:00,45.7,40.8,30.45,WSW,238,3.1,3.1,83,0.00,,---,0.00,VWS V13.01,2013-02-13 13:57:00,
2013-02-13 06:03:00,45.7,40.8,30.45,SW,228,2.2,3.6,83,0.00,,---,0.00,VWS V13.01,2013-02-13 14:03:00,
2013-02-13 06:08:00,45.7,40.8,30.45,SW,222,3.6,3.6,83,0.00,,---,0.00,VWS V13.01,2013-02-13 14:08:00,
2013-02-13 06:14:00,45.7,40.8,30.45,SW,234,2.7,5.4,83,0.00,,---,0.00,VWS V13.01,2013-02-13 14:14:00,
2013-02-13 06:19:00,45.7,40.8,30.45,SW,224,3.6,4.0,83,0.00,,---,0.00,VWS V13.01,2013-02-13 14:19:00,
2013-02-13 06:24:00,45.9,41.0,30.45,SW,228,4.5,4.5,83,0.00,,---,0.00,VWS V13.01,2013-02-13 14:24:00,
2013-02-13 06:29:00,45.9,41.0,30.42,SW,223,4.0,4.9,83,0.00,,---,0.00,VWS V13.01,2013-02-13 14:29:00,
2013-02-13 06:34:00,45.9,41.0,30.42,SW,225,2.2,4.0,83,0.00,,---,0.00,VWS V13.01,2013-02-13 14:34:00,
2013-02-13 06:39:00,45.9,41.0,30.42,South,182,2.7,3.6,83,0.00,,---,0.00,VWS V13.01,2013-02-13 14:39:00,
2013-02-13 06:45:00,45.9,41.0,30.42,SW,228,3.6,4.9,83,0.00,,---,0.00,VWS V13.01,2013-02-13 14:45:00,
2013-02-13 06:50:00,45.9,41.0,30.42,SW,222,3.1,4.0,83,0.00,,---,0.00,VWS V13.01,2013-02-13 14:50:00,
2013-02-13 06:56:00,45.9,41.0,30.42,West,261,2.7,3.6,83,0.00,,---,0.00,VWS V13.01,2013-02-13 14:56:00,
2013-02-13 07:01:00,46.0,41.2,30.45,SW,235,2.7,5.4,83,0.00,,---,0.00,VWS V13.01,2013-02-13 15:01:00,
2013-02-13 07:07:00,46.0,41.2,30.45,SW,222,3.6,3.6,83,0.00,,---,0.00,VWS V13.01,2013-02-13 15:07:00,
2013-02-13 07:12:00,46.0,41.2,30.45,SW,223,2.7,3.1,83,0.00,,---,0.00,VWS V13.01,2013-02-13 15:12:00,
2013-02-13 07:18:00,46.0,41.2,30.45,SW,229,4.9,4.9,83,0.00,,---,0.00,VWS V13.01,2013-02-13 15:18:00,
2013-02-13 07:24:00,46.0,41.2,30.45,SW,229,3.6,3.6,83,0.00,,---,0.00,VWS V13.01,2013-02-13 15:24:00,
2013-02-13 07:29:00,46.0,41.2,30.45,SW,235,3.6,3.6,83,0.00,,---,0.00,VWS V13.01,2013-02-13 15:29:00,
2013-02-13 07:35:00,46.0,41.2,30.45,SW,227,2.7,3.1,83,0.00,,---,0.00,VWS V13.01,2013-02-13 15:35:00,
2013-02-13 07:41:00,46.0,41.2,30.45,SW,224,2.7,2.7,83,0.00,,---,0.00,VWS V13.01,2013-02-13 15:41:00,
2013-02-13 07:46:00,46.0,41.2,30.45,South,179,2.7,3.6,83,0.00,,---,0.00,VWS V13.01,2013-02-13 15:46:00,
2013-02-13 07:52:00,46.2,41.3,30.45,SW,227,4.0,4.0,83,0.00,,---,0.00,VWS V13.01,2013-02-13 15:52:00,
2013-02-13 07:57:00,46.2,41.3,30.45,SSW,204,0.0,0.0,83,0.00,,---,0.00,VWS V13.01,2013-02-13 15:57:00,
2013-02-13 08:03:00,46.4,41.5,30.45,SW,229,3.6,4.9,83,0.00,,---,0.00,VWS V13.01,2013-02-13 16:03:00,
2013-02-13 08:08:00,46.4,41.5,30.45,SW,224,0.0,0.0,83,0.00,,---,0.00,VWS V13.01,2013-02-13 16:08:00,
2013-02-13 08:14:00,46.4,41.2,30.45,West,268,0.0,0.0,82,0.00,,---,0.00,VWS V13.01,2013-02-13 16:14:00,
2013-02-13 08:20:00,46.4,41.2,30.45,SW,231,3.1,3.6,82,0.00,,---,0.00,VWS V13.01,2013-02-13 16:20:00,
2013-02-13 08:25:00,46.4,41.2,30.45,SW,223,2.7,2.7,82,0.00,,---,0.00,VWS V13.01,2013-02-13 16:25:00,
2013-02-13 08:31:00,46.4,41.2,30.45,SSW,212,3.1,3.1,82,0.00,,---,0.00,VWS V13.01,2013-02-13 16:31:00,
2013-02-13 08:37:00,46.4,41.2,30.45,SSW,210,2.2,3.1,82,0.00,,---,0.00,VWS V13.01,2013-02-13 16:37:00,
2013-02-13 08:42:00,46.4,40.9,30.45,WNW,283,0.0,2.7,81,0.00,,---,0.00,VWS V13.01,2013-02-13 16:42:00,
2013-02-13 08:48:00,46.4,40.9,30.45,SSW,208,3.6,5.4,81,0.00,,---,0.00,VWS V13.01,2013-02-13 16:48:00,
2013-02-13 08:53:00,46.6,41.1,30.45,SW,229,2.7,3.1,81,0.00,,---,0.00,VWS V13.01,2013-02-13 16:53:00,
2013-02-13 08:59:00,46.6,41.1,30.45,SSW,213,4.9,4.9,81,0.00,,---,0.00,VWS V13.01,2013-02-13 16:59:00,
2013-02-13 09:05:00,46.8,41.2,30.45,SW,227,0.0,0.0,81,0.00,,---,0.00,VWS V13.01,2013-02-13 17:05:00,
2013-02-13 09:10:00,46.9,41.4,30.45,SW,226,3.1,3.1,81,0.00,,---,0.00,VWS V13.01,2013-02-13 17:10:00,
2013-02-13 09:16:00,47.1,41.6,30.47,SW,224,3.6,5.8,81,0.00,,---,0.00,VWS V13.01,2013-02-13 17:16:00,
2013-02-13 09:21:00,47.3,41.5,30.47,South,177,0.0,4.0,80,0.00,,---,0.00,VWS V13.01,2013-02-13 17:21:00,
2013-02-13 09:27:00,47.5,41.6,30.47,SW,226,3.6,4.9,80,0.00,,---,0.00,VWS V13.01,2013-02-13 17:27:00,
2013-02-13 09:32:00,47.5,41.3,30.47,SW,225,3.6,8.7,79,0.00,,---,0.00,VWS V13.01,2013-02-13 17:32:00,
2013-02-13 09:37:00,47.7,41.2,30.47,SW,229,3.6,5.4,78,0.00,,---,0.00,VWS V13.01,2013-02-13 17:37:00,
2013-02-13 09:42:00,47.8,41.3,30.47,SW,225,3.6,3.6,78,0.00,,---,0.00,VWS V13.01,2013-02-13 17:42:00,
2013-02-13 09:48:00,48.0,41.5,30.47,SW,225,0.0,0.0,78,0.00,,---,0.00,VWS V13.01,2013-02-13 17:48:00,
2013-02-13 09:54:00,48.0,41.2,30.47,West,266,3.1,4.0,77,0.00,,---,0.00,VWS V13.01,2013-02-13 17:54:00,
2013-02-13 09:59:00,48.0,41.2,30.47,SW,229,2.7,5.8,77,0.00,,---,0.00,VWS V13.01,2013-02-13 17:59:00,
2013-02-13 10:04:00,48.0,41.2,30.47,SW,227,3.6,4.0,77,0.00,,---,0.00,VWS V13.01,2013-02-13 18:04:00,
2013-02-13 10:10:00,47.8,40.7,30.47,WNW,286,2.7,3.1,76,0.00,,---,0.00,VWS V13.01,2013-02-13 18:10:00,
2013-02-13 10:16:00,48.0,40.8,30.47,SW,223,4.9,4.9,76,0.00,,---,0.00,VWS V13.01,2013-02-13 18:16:00,
2013-02-13 10:22:00,48.2,40.7,30.47,South,179,2.7,4.9,75,0.00,,---,0.00,VWS V13.01,2013-02-13 18:22:00,
2013-02-13 10:27:00,48.0,40.8,30.47,SW,226,3.6,3.6,76,0.00,,---,0.00,VWS V13.01,2013-02-13 18:27:00,
2013-02-13 10:33:00,48.2,40.7,30.47,WSW,239,4.0,4.0,75,0.00,,---,0.00,VWS V13.01,2013-02-13 18:33:00,
2013-02-13 10:38:00,48.2,40.7,30.47,SW,233,3.1,3.6,75,0.00,,---,0.00,VWS V13.01,2013-02-13 18:38:00,
2013-02-13 10:43:00,48.4,40.8,30.47,SW,233,2.7,3.1,75,0.00,,---,0.00,VWS V13.01,2013-02-13 18:43:00,
2013-02-13 10:48:00,48.4,40.5,30.47,SW,224,0.0,2.7,74,0.00,,---,0.00,VWS V13.01,2013-02-13 18:48:00,
2013-02-13 10:53:00,48.6,40.7,30.47,WSW,238,2.7,2.7,74,0.00,,---,0.00,VWS V13.01,2013-02-13 18:53:00,
2013-02-13 10:58:00,48.7,40.8,30.47,SW,235,3.1,3.1,74,0.00,,---,0.00,VWS V13.01,2013-02-13 18:58:00,
2013-02-13 11:04:00,49.1,41.2,30.47,South,177,3.1,3.1,74,0.00,,---,0.00,VWS V13.01,2013-02-13 19:04:00,
2013-02-13 11:09:00,49.5,41.5,30.47,WSW,241,3.1,3.6,74,0.00,,---,0.00,VWS V13.01,2013-02-13 19:09:00,
2013-02-13 11:15:00,49.5,41.2,30.47,SW,223,2.7,4.0,73,0.00,,---,0.00,VWS V13.01,2013-02-13 19:15:00,
2013-02-13 11:20:00,49.8,41.5,30.47,WSW,246,2.7,2.7,73,0.00,,---,0.00,VWS V13.01,2013-02-13 19:20:00,
2013-02-13 11:26:00,50.0,41.0,30.47,West,278,2.7,2.7,71,0.00,,---,0.00,VWS V13.01,2013-02-13 19:26:00,
2013-02-13 11:31:00,49.6,40.6,30.47,WSW,248,0.0,0.0,71,0.00,,---,0.00,VWS V13.01,2013-02-13 19:31:00,
2013-02-13 11:37:00,49.6,40.6,30.47,WSW,255,0.0,0.0,71,0.00,,---,0.00,VWS V13.01,2013-02-13 19:37:00,
2013-02-13 11:43:00,49.8,40.8,30.47,West,263,0.0,0.0,71,0.00,,---,0.00,VWS V13.01,2013-02-13 19:43:00,
2013-02-13 11:48:00,49.8,40.8,30.47,West,263,0.0,0.0,71,0.00,,---,0.00,VWS V13.01,2013-02-13 19:48:00,
2013-02-13 11:54:00,49.8,40.8,30.47,West,264,0.0,0.0,71,0.00,,---,0.00,VWS V13.01,2013-02-13 19:54:00,
2013-02-13 12:00:00,50.2,40.8,30.47,West,265,0.0,2.7,70,0.00,,---,0.00,VWS V13.01,2013-02-13 20:00:00,
2013-02-13 12:05:00,51.1,41.7,30.47,SW,230,2.7,3.6,70,0.00,,---,0.00,VWS V13.01,2013-02-13 20:05:00,
2013-02-13 12:11:00,51.6,41.4,30.47,SW,230,2.7,3.1,68,0.00,,---,0.00,VWS V13.01,2013-02-13 20:11:00,
2013-02-13 12:16:00,52.9,41.8,30.47,WSW,237,0.0,3.6,66,0.00,,---,0.00,VWS V13.01,2013-02-13 20:16:00,
2013-02-13 12:22:00,53.6,39.2,30.47,WNW,282,2.7,4.9,58,0.00,,---,0.00,VWS V13.01,2013-02-13 20:22:00,
2013-02-13 12:28:00,54.7,39.8,30.47,SW,236,3.6,4.0,57,0.00,,---,0.00,VWS V13.01,2013-02-13 20:28:00,
2013-02-13 12:33:00,54.7,38.8,30.47,SW,236,2.7,3.6,55,0.00,,---,0.00,VWS V13.01,2013-02-13 20:33:00,
2013-02-13 12:39:00,54.0,36.3,30.47,SW,233,2.7,3.1,51,0.00,,---,0.00,VWS V13.01,2013-02-13 20:39:00,
2013-02-13 12:44:00,53.6,36.9,30.45,WSW,238,0.0,0.0,53,0.00,,---,0.00,VWS V13.01,2013-02-13 20:44:00,
2013-02-13 12:50:00,53.2,37.0,30.45,SW,224,0.0,0.0,54,0.00,,---,0.00,VWS V13.01,2013-02-13 20:50:00,
2013-02-13 12:56:00,53.4,37.7,30.45,West,265,0.0,0.0,55,0.00,,---,0.00,VWS V13.01,2013-02-13 20:56:00,
2013-02-13 13:01:00,53.8,37.5,30.45,SW,222,0.0,2.2,54,0.00,,---,0.00,VWS V13.01,2013-02-13 21:01:00,
2013-02-13 13:07:00,53.8,36.1,30.45,South,184,4.0,6.3,51,0.00,,---,0.00,VWS V13.01,2013-02-13 21:07:00,
2013-02-13 13:12:00,54.3,37.1,30.45,WSW,247,3.1,3.1,52,0.00,,---,0.00,VWS V13.01,2013-02-13 21:12:00,
2013-02-13 13:18:00,54.3,36.6,30.45,WSW,242,0.0,3.1,51,0.00,,---,0.00,VWS V13.01,2013-02-13 21:18:00,
2013-02-13 13:23:00,54.0,35.8,30.45,West,278,0.0,0.0,50,0.00,,---,0.00,VWS V13.01,2013-02-13 21:23:00,
2013-02-13 13:29:00,53.8,35.6,30.45,SSW,207,0.0,3.1,50,0.00,,---,0.00,VWS V13.01,2013-02-13 21:29:00,
2013-02-13 13:35:00,53.2,35.1,30.45,WSW,238,2.2,3.1,50,0.00,,---,0.00,VWS V13.01,2013-02-13 21:35:00,
2013-02-13 13:40:00,52.9,35.3,30.45,WSW,257,0.0,0.0,51,0.00,,---,0.00,VWS V13.01,2013-02-13 21:40:00,
2013-02-13 13:46:00,52.5,34.4,30.45,WNW,292,0.0,0.0,50,0.00,,---,0.00,VWS V13.01,2013-02-13 21:46:00,
2013-02-13 13:52:00,52.7,34.6,30.45,WNW,292,0.0,0.0,50,0.00,,---,0.00,VWS V13.01,2013-02-13 21:52:00,
2013-02-13 13:57:00,53.2,35.1,30.45,West,273,0.0,6.3,50,0.00,,---,0.00,VWS V13.01,2013-02-13 21:57:00,
2013-02-13 14:03:00,53.8,34.6,30.45,WSW,239,0.0,0.0,48,0.00,,---,0.00,VWS V13.01,2013-02-13 22:03:00,
2013-02-13 14:08:00,54.0,34.7,30.45,NNE,24,2.7,2.7,48,0.00,,---,0.00,VWS V13.01,2013-02-13 22:08:00,
2013-02-13 14:14:00,51.8,34.3,30.45,ENE,58,0.0,3.6,51,0.00,,---,0.00,VWS V13.01,2013-02-13 22:14:00,
2013-02-13 14:20:00,50.9,35.3,30.45,NNW,334,0.0,3.1,55,0.00,,---,0.00,VWS V13.01,2013-02-13 22:20:00,
2013-02-13 14:25:00,50.7,35.2,30.45,NNW,334,0.0,0.0,55,0.00,,---,0.00,VWS V13.01,2013-02-13 22:25:00,
2013-02-13 14:31:00,50.2,35.1,30.45,North,0,0.0,0.0,56,0.00,,---,0.00,VWS V13.01,2013-02-13 22:31:00,
2013-02-13 14:36:00,50.0,35.8,30.45,North,0,0.0,0.0,58,0.00,,---,0.00,VWS V13.01,2013-02-13 22:36:00,
2013-02-13 14:41:00,50.2,36.0,30.45,North,0,0.0,0.0,58,0.00,,---,0.00,VWS V13.01,2013-02-13 22:41:00,
2013-02-13 14:46:00,50.4,35.3,30.45,North,357,0.0,0.0,56,0.00,,---,0.00,VWS V13.01,2013-02-13 22:46:00,
2013-02-13 14:52:00,50.5,35.0,30.45,North,357,0.0,0.0,55,0.00,,---,0.00,VWS V13.01,2013-02-13 22:52:00,
2013-02-13 14:58:00,50.7,35.6,30.45,NNW,341,0.0,0.0,56,0.00,,---,0.00,VWS V13.01,2013-02-13 22:58:00,
2013-02-13 15:03:00,50.5,35.9,30.45,NNE,28,0.0,0.0,57,0.00,,---,0.00,VWS V13.01,2013-02-13 23:03:00,
2013-02-13 15:09:00,50.5,35.9,30.45,North,0,0.0,0.0,57,0.00,,---,0.00,VWS V13.01,2013-02-13 23:09:00,
2013-02-13 15:14:00,50.4,34.8,30.45,ENE,60,0.0,0.0,55,0.00,,---,0.00,VWS V13.01,2013-02-13 23:14:00,
2013-02-13 15:19:00,50.5,35.4,30.45,NNE,29,0.0,3.1,56,0.00,,---,0.00,VWS V13.01,2013-02-13 23:19:00,
2013-02-13 15:24:00,50.4,35.7,30.45,North,1,0.0,0.0,57,0.00,,---,0.00,VWS V13.01,2013-02-13 23:24:00,
2013-02-13 15:29:00,50.2,35.5,30.45,NNE,28,0.0,0.0,57,0.00,,---,0.00,VWS V13.01,2013-02-13 23:29:00,
2013-02-13 15:35:00,49.8,35.7,30.45,NE,46,2.2,2.2,58,0.00,,---,0.00,VWS V13.01,2013-02-13 23:35:00,
2013-02-13 15:40:00,49.6,35.5,30.45,ENE,59,0.0,0.0,58,0.00,,---,0.00,VWS V13.01,2013-02-13 23:40:00,
2013-02-13 15:45:00,49.3,35.6,30.45,NE,38,0.0,3.1,59,0.00,,---,0.00,VWS V13.01,2013-02-13 23:45:00,
2013-02-13 15:51:00,48.9,35.7,30.45,NE,52,0.0,4.0,60,0.00,,---,0.00,VWS V13.01,2013-02-13 23:51:00,
2013-02-13 15:56:00,48.6,35.7,30.45,North,357,0.0,2.7,61,0.00,,---,0.00,VWS V13.01,2013-02-13 23:56:00,
2013-02-13 16:02:00,48.4,36.4,30.45,NNE,27,0.0,0.0,63,0.00,,---,0.00,VWS V13.01,2013-02-14 00:02:00,
2013-02-13 16:08:00,48.2,36.2,30.45,NNE,27,0.0,0.0,63,0.00,,---,0.00,VWS V13.01,2013-02-14 00:08:00,
2013-02-13 16:13:00,48.2,36.6,30.45,NNE,27,0.0,0.0,64,0.00,,---,0.00,VWS V13.01,2013-02-14 00:13:00,
2013-02-13 16:19:00,48.2,36.6,30.45,NNE,33,0.0,0.0,64,0.00,,---,0.00,VWS V13.01,2013-02-14 00:19:00,
2013-02-13 16:24:00,48.0,36.8,30.45,NNE,32,3.1,3.1,65,0.00,,---,0.00,VWS V13.01,2013-02-14 00:24:00,
2013-02-13 16:30:00,48.0,36.4,30.45,NE,34,0.0,0.0,64,0.00,,---,0.00,VWS V13.01,2013-02-14 00:30:00,
2013-02-13 16:35:00,47.8,36.3,30.45,NE,38,0.0,2.2,64,0.00,,---,0.00,VWS V13.01,2013-02-14 00:35:00,
2013-02-13 16:40:00,47.8,36.7,30.45,NNE,32,0.0,0.0,65,0.00,,---,0.00,VWS V13.01,2013-02-14 00:40:00,
2013-02-13 16:45:00,47.7,36.5,30.45,NNE,32,0.0,0.0,65,0.00,,---,0.00,VWS V13.01,2013-02-14 00:45:00,
2013-02-13 16:51:00,47.7,36.1,30.45,NNE,29,2.2,2.2,64,0.00,,---,0.00,VWS V13.01,2013-02-14 00:51:00,
2013-02-13 16:57:00,47.5,35.9,30.45,NNE,29,0.0,0.0,64,0.00,,---,0.00,VWS V13.01,2013-02-14 00:57:00,
2013-02-13 17:02:00,47.5,35.9,30.45,NNE,32,0.0,0.0,64,0.00,,---,0.00,VWS V13.01,2013-02-14 01:02:00,
2013-02-13 17:07:00,47.5,35.9,30.45,NNE,32,0.0,0.0,64,0.00,,---,0.00,VWS V13.01,2013-02-14 01:07:00,
2013-02-13 17:13:00,47.3,35.8,30.45,NNE,32,0.0,0.0,64,0.00,,---,0.00,VWS V13.01,2013-02-14 01:13:00,
2013-02-13 17:18:00,47.3,35.8,30.45,NNE,31,0.0,0.0,64,0.00,,---,0.00,VWS V13.01,2013-02-14 01:18:00,
2013-02-13 17:23:00,47.3,35.8,30.45,NNE,32,0.0,0.0,64,0.00,,---,0.00,VWS V13.01,2013-02-14 01:23:00,
2013-02-13 17:29:00,47.3,35.8,30.45,NNE,32,0.0,0.0,64,0.00,,---,0.00,VWS V13.01,2013-02-14 01:29:00,
2013-02-13 17:35:00,47.3,35.8,30.45,NNE,32,0.0,0.0,64,0.00,,---,0.00,VWS V13.01,2013-02-14 01:35:00,
2013-02-13 17:41:00,47.3,36.2,30.45,NNE,32,0.0,0.0,65,0.00,,---,0.00,VWS V13.01,2013-02-14 01:41:00,
2013-02-13 17:46:00,47.3,36.5,30.45,NNE,32,0.0,0.0,66,0.00,,---,0.00,VWS V13.01,2013-02-14 01:46:00,
2013-02-13 17:51:00,47.3,36.5,30.45,NNE,32,0.0,0.0,66,0.00,,---,0.00,VWS V13.01,2013-02-14 01:51:00,
2013-02-13 17:57:00,47.1,36.4,30.45,NNE,32,0.0,0.0,66,0.00,,---,0.00,VWS V13.01,2013-02-14 01:57:00,
2013-02-13 18:03:00,47.1,36.7,30.45,NNE,32,0.0,0.0,67,0.00,,---,0.00,VWS V13.01,2013-02-14 02:03:00,
2013-02-13 18:09:00,47.1,37.1,30.45,NNE,32,0.0,0.0,68,0.00,,---,0.00,VWS V13.01,2013-02-14 02:09:00,
2013-02-13 18:15:00,46.8,36.8,30.47,NNE,32,0.0,0.0,68,0.00,,---,0.00,VWS V13.01,2013-02-14 02:15:00,
2013-02-13 18:20:00,46.6,37.0,30.47,NE,35,0.0,0.0,69,0.00,,---,0.00,VWS V13.01,2013-02-14 02:20:00,
2013-02-13 18:26:00,46.4,37.2,30.47,NE,35,0.0,0.0,70,0.00,,---,0.00,VWS V13.01,2013-02-14 02:26:00,
2013-02-13 18:31:00,46.0,36.5,30.47,NE,35,0.0,0.0,69,0.00,,---,0.00,VWS V13.01,2013-02-14 02:31:00,
2013-02-13 18:37:00,46.0,35.7,30.47,NE,35,0.0,0.0,67,0.00,,---,0.00,VWS V13.01,2013-02-14 02:37:00,
2013-02-13 18:43:00,46.2,35.9,30.47,NE,35,0.0,0.0,67,0.00,,---,0.00,VWS V13.01,2013-02-14 02:43:00,
2013-02-13 18:48:00,46.2,36.6,30.47,NE,35,0.0,0.0,69,0.00,,---,0.00,VWS V13.01,2013-02-14 02:48:00,
2013-02-13 18:54:00,46.2,36.6,30.47,NE,35,0.0,0.0,69,0.00,,---,0.00,VWS V13.01,2013-02-14 02:54:00,
2013-02-13 18:59:00,46.2,36.6,30.47,NE,35,0.0,0.0,69,0.00,,---,0.00,VWS V13.01,2013-02-14 02:59:00,
2013-02-13 19:05:00,46.2,35.5,30.47,NE,35,0.0,0.0,66,0.00,,---,0.00,VWS V13.01,2013-02-14 03:05:00,
2013-02-13 19:10:00,46.4,36.0,30.47,NE,35,0.0,0.0,67,0.00,,---,0.00,VWS V13.01,2013-02-14 03:10:00,
2013-02-13 19:16:00,46.4,35.7,30.47,NE,35,0.0,0.0,66,0.00,,---,0.00,VWS V13.01,2013-02-14 03:16:00,
2013-02-13 19:21:00,46.4,35.7,30.47,NE,35,0.0,0.0,66,0.00,,---,0.00,VWS V13.01,2013-02-14 03:21:00,
2013-02-13 19:26:00,46.2,35.9,30.47,NE,35,0.0,0.0,67,0.00,,---,0.00,VWS V13.01,2013-02-14 03:26:00,
2013-02-13 19:32:00,46.2,35.9,30.47,NE,35,0.0,0.0,67,0.00,,---,0.00,VWS V13.01,2013-02-14 03:32:00,
2013-02-13 19:37:00,46.2,35.9,30.47,NE,35,0.0,0.0,67,0.00,,---,0.00,VWS V13.01,2013-02-14 03:37:00,
2013-02-13 19:43:00,46.2,35.9,30.47,NE,35,0.0,0.0,67,0.00,,---,0.00,VWS V13.01,2013-02-14 03:43:00,
2013-02-13 19:48:00,46.0,35.7,30.47,NE,35,0.0,0.0,67,0.00,,---,0.00,VWS V13.01,2013-02-14 03:48:00,
2013-02-13 19:54:00,46.0,36.5,30.47,NE,35,0.0,0.0,69,0.00,,---,0.00,VWS V13.01,2013-02-14 03:54:00,
2013-02-13 19:59:00,46.0,36.5,30.47,NE,35,0.0,0.0,69,0.00,,---,0.00,VWS V13.01,2013-02-14 03:59:00,
2013-02-13 20:04:00,46.0,36.5,30.47,NE,35,0.0,0.0,69,0.00,,---,0.00,VWS V13.01,2013-02-14 04:04:00,
2013-02-13 20:10:00,45.9,36.3,30.47,NE,35,0.0,0.0,69,0.00,,---,0.00,VWS V13.01,2013-02-14 04:10:00,
2013-02-13 20:16:00,45.9,36.3,30.47,NE,35,0.0,0.0,69,0.00,,---,0.00,VWS V13.01,2013-02-14 04:16:00,
2013-02-13 20:21:00,45.9,36.3,30.47,NE,35,0.0,0.0,69,0.00,,---,0.00,VWS V13.01,2013-02-14 04:21:00,
2013-02-13 20:27:00,45.9,35.9,30.47,NE,35,0.0,0.0,68,0.00,,---,0.00,VWS V13.01,2013-02-14 04:27:00,
2013-02-13 20:33:00,45.7,35.7,30.47,NE,35,0.0,0.0,68,0.00,,---,0.00,VWS V13.01,2013-02-14 04:33:00,
2013-02-13 20:39:00,45.7,35.7,30.47,NE,35,0.0,0.0,68,0.00,,---,0.00,VWS V13.01,2013-02-14 04:39:00,
2013-02-13 20:44:00,45.7,35.7,30.47,NE,35,0.0,0.0,68,0.00,,---,0.00,VWS V13.01,2013-02-14 04:44:00,
2013-02-13 20:50:00,45.7,36.1,30.47,NE,35,0.0,0.0,69,0.00,,---,0.00,VWS V13.01,2013-02-14 04:50:00,
2013-02-13 20:55:00,45.5,35.9,30.47,NE,35,0.0,0.0,69,0.00,,---,0.00,VWS V13.01,2013-02-14 04:55:00,
2013-02-13 21:00:00,45.5,35.9,30.50,NE,35,0.0,0.0,69,0.00,,---,0.00,VWS V13.01,2013-02-14 05:00:00,
2013-02-13 21:02:00,45.5,35.9,30.50,NE,35,0.0,0.0,69,0.00,,---,0.00,VWS V13.01,2013-02-14 05:02:00,
2013-02-13 21:03:00,45.5,35.9,30.50,NE,35,0.0,0.0,69,0.00,,---,0.00,VWS V13.01,2013-02-14 05:03:00,
2013-02-13 21:08:00,45.3,35.8,30.50,NE,35,0.0,0.0,69,0.00,,---,0.00,VWS V13.01,2013-02-14 05:08:00,
2013-02-13 21:12:00,45.5,35.9,30.50,NE,35,0.0,0.0,69,0.00,,---,0.00,VWS V13.01,2013-02-14 05:12:00,
2013-02-13 21:18:00,45.5,35.9,30.50,NE,35,0.0,0.0,69,0.00,,---,0.00,VWS V13.01,2013-02-14 05:18:00,
2013-02-13 21:23:00,45.3,35.8,30.50,NE,35,0.0,0.0,69,0.00,,---,0.00,VWS V13.01,2013-02-14 05:23:00,
2013-02-13 21:28:00,45.3,35.8,30.47,NE,35,0.0,0.0,69,0.00,,---,0.00,VWS V13.01,2013-02-14 05:28:00,
2013-02-13 21:34:00,45.3,35.4,30.47,NNE,28,0.0,0.0,68,0.00,,---,0.00,VWS V13.01,2013-02-14 05:34:00,
2013-02-13 21:40:00,45.1,33.7,30.47,NNE,33,0.0,3.6,64,0.00,,---,0.00,VWS V13.01,2013-02-14 05:40:00,
2013-02-13 21:46:00,45.1,32.9,30.50,NNE,28,0.0,0.0,62,0.00,,---,0.00,VWS V13.01,2013-02-14 05:46:00,
2013-02-13 21:51:00,45.3,33.1,30.50,NE,36,0.0,0.0,62,0.00,,---,0.00,VWS V13.01,2013-02-14 05:51:00,
2013-02-13 21:56:00,45.3,33.1,30.50,NE,36,0.0,0.0,62,0.00,,---,0.00,VWS V13.01,2013-02-14 05:56:00,
2013-02-13 22:02:00,45.1,32.9,30.50,NE,36,0.0,0.0,62,0.00,,---,0.00,VWS V13.01,2013-02-14 06:02:00,
2013-02-13 22:08:00,45.1,33.3,30.50,NE,36,0.0,0.0,63,0.00,,---,0.00,VWS V13.01,2013-02-14 06:08:00,
2013-02-13 22:14:00,45.1,33.7,30.50,NE,34,0.0,0.0,64,0.00,,---,0.00,VWS V13.01,2013-02-14 06:14:00,
2013-02-13 22:19:00,45.0,33.5,30.50,NE,34,2.2,2.7,64,0.00,,---,0.00,VWS V13.01,2013-02-14 06:19:00,
2013-02-13 22:25:00,44.8,34.1,30.50,NE,34,0.0,0.0,66,0.00,,---,0.00,VWS V13.01,2013-02-14 06:25:00,
2013-02-13 22:31:00,44.8,34.5,30.50,NNE,29,0.0,2.7,67,0.00,,---,0.00,VWS V13.01,2013-02-14 06:31:00,
2013-02-13 22:36:00,44.8,34.9,30.50,NNE,27,0.0,3.6,68,0.00,,---,0.00,VWS V13.01,2013-02-14 06:36:00,
2013-02-13 22:42:00,44.4,35.3,30.50,NNE,29,0.0,0.0,70,0.00,,---,0.00,VWS V13.01,2013-02-14 06:42:00,
2013-02-13 22:47:00,44.2,35.1,30.50,NNE,29,0.0,0.0,70,0.00,,---,0.00,VWS V13.01,2013-02-14 06:47:00,
2013-02-13 22:52:00,44.2,35.1,30.50,NNE,19,3.1,4.0,70,0.00,,---,0.00,VWS V13.01,2013-02-14 06:52:00,
2013-02-13 22:58:00,44.2,34.0,30.50,NNE,30,4.0,4.0,67,0.00,,---,0.00,VWS V13.01,2013-02-14 06:58:00,
2013-02-13 23:03:00,44.1,33.4,30.50,NE,37,0.0,0.0,66,0.00,,---,0.00,VWS V13.01,2013-02-14 07:03:00,
2013-02-13 23:09:00,43.7,33.1,30.50,NE,36,0.0,0.0,66,0.00,,---,0.00,VWS V13.01,2013-02-14 07:09:00,
2013-02-13 23:14:00,43.5,33.3,30.50,NE,38,0.0,0.0,67,0.00,,---,0.00,VWS V13.01,2013-02-14 07:14:00,
2013-02-13 23:19:00,43.3,33.5,30.50,NE,38,0.0,0.0,68,0.00,,---,0.00,VWS V13.01,2013-02-14 07:19:00,
2013-02-13 23:24:00,43.0,33.9,30.50,NE,38,0.0,0.0,70,0.00,,---,0.00,VWS V13.01,2013-02-14 07:24:00,
2013-02-13 23:30:00,42.8,33.7,30.50,NE,38,0.0,0.0,70,0.00,,---,0.00,VWS V13.01,2013-02-14 07:30:00,
2013-02-13 23:35:00,42.6,33.9,30.50,NE,38,0.0,0.0,71,0.00,,---,0.00,VWS V13.01,2013-02-14 07:35:00,
2013-02-13 23:40:00,42.3,33.5,30.50,NE,38,0.0,0.0,71,0.00,,---,0.00,VWS V13.01,2013-02-14 07:40:00,
2013-02-13 23:45:00,42.1,33.4,30.50,NE,38,0.0,0.0,71,0.00,,---,0.00,VWS V13.01,2013-02-14 07:45:00,
2013-02-13 23:51:00,41.9,33.2,30.50,NE,38,0.0,0.0,71,0.00,,---,0.00,VWS V13.01,2013-02-14 07:51:00,
2013-02-13 23:56:00,41.7,33.4,30.50,NE,38,0.0,0.0,72,0.00,,---,0.00,VWS V13.01,2013-02-14 07:56:00,